Time;durP1;ratioP1;P1;durP2;ratioP2;P2;SDS_P1;SDS_P2;PMS_P1;PMS_P2;Temp;Humidity;BMP_temperature;BMP_pressure;BME280_temperature;BME280_humidity;BME280_pressure;Samples;Min_cycle;Max_cycle;Signal;HPM_P1;HPM_P2
2022/01/22 00:01:59;;;;;;;;;;;21.70;52.40;;;;;;5016678;28;933;-41
2022/01/22 00:04:26;;;;;;;;;;;21.70;52.40;;;;;;5015698;28;937;-41
2022/01/22 00:06:55;;;;;;;;;;;21.70;52.40;;;;;;5016264;28;999;-41
2022/01/22 00:09:25;;;;;;;;;;;21.70;52.40;;;;;;5016141;28;988;-40
2022/01/22 00:11:53;;;;;;;;;;;21.70;52.30;;;;;;5016225;28;1979;-41
2022/01/22 00:14:25;;;;;;;;;;;21.70;52.40;;;;;;5016400;28;1008;-41
2022/01/22 00:16:53;;;;;;;;;;;21.70;52.40;;;;;;5016647;28;925;-41
2022/01/22 00:19:19;;;;;;;;;;;21.60;52.40;;;;;;5016127;28;949;-41
2022/01/22 00:21:46;;;;;;;;;;;21.60;52.30;;;;;;5016755;28;979;-41
2022/01/22 00:24:13;;;;;;;;;;;21.60;52.30;;;;;;5016307;28;980;-41
2022/01/22 00:26:42;;;;;;;;;;;21.60;52.30;;;;;;5016362;28;1039;-41
2022/01/22 00:29:10;;;;;;;;;;;21.60;52.40;;;;;;5015344;28;1016;-41
2022/01/22 00:31:36;;;;;;;;;;;21.60;52.30;;;;;;5016407;28;1894;-41
2022/01/22 00:34:03;;;;;;;;;;;21.60;52.20;;;;;;5015483;28;987;-41
2022/01/22 00:36:30;;;;;;;;;;;21.60;52.20;;;;;;5015653;28;953;-40
2022/01/22 00:38:57;;;;;;;;;;;21.60;52.30;;;;;;5014620;28;989;-41
2022/01/22 00:41:23;;;;;;;;;;;21.50;52.30;;;;;;5015631;28;1024;-41
2022/01/22 00:43:53;;;;;;;;;;;21.50;52.30;;;;;;5016086;28;1007;-41
2022/01/22 00:46:20;;;;;;;;;;;21.50;52.30;;;;;;5015454;28;992;-41
2022/01/22 00:48:47;;;;;;;;;;;21.50;52.30;;;;;;5015808;28;933;-41
2022/01/22 00:51:14;;;;;;;;;;;21.50;52.30;;;;;;5016195;28;1902;-41
2022/01/22 00:53:40;;;;;;;;;;;21.40;52.20;;;;;;5014714;28;947;-41
2022/01/22 00:56:07;;;;;;;;;;;21.40;52.30;;;;;;5014831;28;1007;-41
2022/01/22 00:58:34;;;;;;;;;;;21.40;52.40;;;;;;5015444;28;992;-41
2022/01/22 01:01:02;;;;;;;;;;;21.40;52.30;;;;;;5015742;28;885;-41
2022/01/22 01:03:32;;;;;;;;;;;21.40;52.20;;;;;;5016086;28;1021;-41
2022/01/22 01:05:59;;;;;;;;;;;21.40;52.30;;;;;;5015636;28;992;-41
2022/01/22 01:08:27;;;;;;;;;;;21.40;52.30;;;;;;5015766;28;995;-41
2022/01/22 01:10:54;;;;;;;;;;;21.40;52.30;;;;;;5016019;28;1910;-41
2022/01/22 01:13:21;;;;;;;;;;;21.30;52.20;;;;;;5015515;28;1003;-41
2022/01/22 01:15:58;;;;;;;;;;;21.40;52.20;;;;;;5015526;28;981;-41
2022/01/22 01:32:16;;;;;;;;;;;21.30;52.30;;;;;;5014591;28;1910;-41
2022/01/22 01:34:45;;;;;;;;;;;21.40;52.20;;;;;;5015640;28;1027;-41
2022/01/22 01:37:14;;;;;;;;;;;21.30;52.10;;;;;;5015313;28;973;-42
2022/01/22 01:39:42;;;;;;;;;;;21.30;52.10;;;;;;5015596;28;925;-41
2022/01/22 01:42:12;;;;;;;;;;;21.30;52.20;;;;;;5015505;28;948;-42
2022/01/22 01:44:40;;;;;;;;;;;21.30;52.30;;;;;;5015749;28;1259;-41
2022/01/22 01:47:08;;;;;;;;;;;21.30;52.10;;;;;;5014267;28;917;-42
2022/01/22 01:49:36;;;;;;;;;;;21.30;52.20;;;;;;5015530;28;946;-42
2022/01/22 01:52:08;;;;;;;;;;;21.30;52.30;;;;;;5014500;28;1898;-41
2022/01/22 01:54:44;;;;;;;;;;;21.30;52.20;;;;;;5015324;28;1013;-41
2022/01/22 01:57:33;;;;;;;;;;;21.20;52.20;;;;;;5014994;28;1778;-41
2022/01/22 02:00:00;;;;;;;;;;;21.20;52.30;;;;;;5015270;28;1049;-41
2022/01/22 02:02:29;;;;;;;;;;;21.20;52.30;;;;;;5014822;28;926;-41
2022/01/22 02:04:56;;;;;;;;;;;21.20;52.20;;;;;;5017648;28;1005;-41
2022/01/22 02:07:24;;;;;;;;;;;21.20;52.20;;;;;;5018516;28;984;-41
2022/01/22 02:09:50;;;;;;;;;;;21.20;52.20;;;;;;5018755;28;1028;-41
2022/01/22 02:12:32;;;;;;;;;;;21.20;52.10;;;;;;5018519;28;1977;-42
2022/01/22 02:23:35;;;;;;;;;;;21.20;52.10;;;;;;5018067;28;635;-41
2022/01/22 02:26:03;;;;;;;;;;;21.20;52.10;;;;;;5018575;28;1035;-41
2022/01/22 02:28:31;;;;;;;;;;;21.20;52.10;;;;;;5018283;28;1161;-41
2022/01/22 02:31:04;;;;;;;;;;;21.20;52.10;;;;;;5018125;28;985;-42
2022/01/22 02:33:37;;;;;;;;;;;21.10;52.00;;;;;;5018239;28;997;-41
2022/01/22 02:36:14;;;;;;;;;;;21.10;52.10;;;;;;5018102;28;978;-41
2022/01/22 02:38:49;;;;;;;;;;;21.10;52.10;;;;;;5017986;28;983;-41
2022/01/22 02:41:18;;;;;;;;;;;21.10;52.20;;;;;;5017453;28;976;-41
2022/01/22 02:43:47;;;;;;;;;;;21.10;52.10;;;;;;5018198;28;986;-42
2022/01/22 02:46:16;;;;;;;;;;;21.10;52.20;;;;;;5017798;28;1058;-42
2022/01/22 02:48:43;;;;;;;;;;;21.00;52.20;;;;;;5017971;28;1000;-41
2022/01/22 02:51:09;;;;;;;;;;;21.10;52.20;;;;;;5018019;28;1981;-41
2022/01/22 02:53:36;;;;;;;;;;;21.00;52.10;;;;;;5017902;28;993;-41
2022/01/22 02:56:05;;;;;;;;;;;21.10;52.20;;;;;;5017766;28;941;-41
2022/01/22 02:58:32;;;;;;;;;;;21.00;52.20;;;;;;5017595;28;956;-42
2022/01/22 03:00:58;;;;;;;;;;;21.00;52.20;;;;;;5017586;28;949;-42
2022/01/22 03:03:25;;;;;;;;;;;21.00;52.20;;;;;;5017814;28;957;-41
2022/01/22 03:05:52;;;;;;;;;;;21.00;52.10;;;;;;5017936;28;1127;-41
2022/01/22 03:08:20;;;;;;;;;;;21.00;52.10;;;;;;5017825;28;937;-41
2022/01/22 03:10:51;;;;;;;;;;;21.00;52.10;;;;;;5017941;28;956;-41
2022/01/22 03:13:57;;;;;;;;;;;21.10;52.10;;;;;;5017924;28;1981;-42
2022/01/22 03:16:32;;;;;;;;;;;21.10;52.10;;;;;;5017308;28;888;-41
2022/01/22 03:19:04;;;;;;;;;;;21.00;52.20;;;;;;5017895;28;942;-42
2022/01/22 03:21:38;;;;;;;;;;;21.10;52.10;;;;;;5017244;28;921;-41
2022/01/22 03:29:38;;;;;;;;;;;21.00;52.10;;;;;;5017153;28;918;-41
2022/01/22 03:32:07;;;;;;;;;;;21.00;52.20;;;;;;5017782;28;1907;-41
2022/01/22 03:34:40;;;;;;;;;;;21.00;52.20;;;;;;5017165;28;1031;-41
2022/01/22 03:37:07;;;;;;;;;;;20.90;52.20;;;;;;5017582;28;1012;-41
2022/01/22 03:39:34;;;;;;;;;;;20.90;52.20;;;;;;5017020;28;965;-41
2022/01/22 03:42:01;;;;;;;;;;;20.90;52.20;;;;;;5016600;28;921;-42
2022/01/22 03:44:27;;;;;;;;;;;20.90;52.20;;;;;;5016836;28;1093;-41
2022/01/22 03:46:55;;;;;;;;;;;20.90;52.20;;;;;;5017323;28;944;-42
2022/01/22 03:49:22;;;;;;;;;;;20.90;52.40;;;;;;5017090;28;918;-42
2022/01/22 03:51:49;;;;;;;;;;;20.90;52.40;;;;;;5016869;28;1898;-41
2022/01/22 03:54:15;;;;;;;;;;;20.90;52.20;;;;;;5016600;28;1024;-41
2022/01/22 03:56:45;;;;;;;;;;;20.90;52.30;;;;;;5016661;28;932;-41
2022/01/22 03:59:12;;;;;;;;;;;20.90;52.20;;;;;;5017053;28;1040;-41
2022/01/22 04:04:42;;;;;;;;;;;20.90;52.20;;;;;;5017022;28;1016;-41
2022/01/22 04:09:57;;;;;;;;;;;20.80;52.20;;;;;;5016390;28;891;-42
2022/01/22 04:12:31;;;;;;;;;;;20.90;52.20;;;;;;5016780;28;1991;-42
2022/01/22 04:15:02;;;;;;;;;;;20.90;52.10;;;;;;5016241;28;980;-41
2022/01/22 04:24:48;;;;;;;;;;;20.80;52.30;;;;;;5017107;28;1023;-42
2022/01/22 04:25:58;;;;;;;;;;;20.80;52.40;;;;;;4996002;28;1197;-41
2022/01/22 04:28:25;;;;;;;;;;;20.80;52.30;;;;;;5016326;28;988;-42
2022/01/22 04:30:52;;;;;;;;;;;20.80;52.40;;;;;;5016914;28;1126;-42
2022/01/22 04:33:19;;;;;;;;;;;20.80;52.30;;;;;;5016545;28;1903;-41
2022/01/22 04:35:47;;;;;;;;;;;20.80;52.30;;;;;;5016336;28;1002;-41
2022/01/22 04:38:14;;;;;;;;;;;20.80;52.30;;;;;;5015891;28;984;-41
2022/01/22 04:40:40;;;;;;;;;;;20.80;52.20;;;;;;5016595;28;995;-41
2022/01/22 04:43:08;;;;;;;;;;;20.80;52.30;;;;;;5016113;28;1006;-41
2022/01/22 04:45:49;;;;;;;;;;;20.80;52.40;;;;;;5015815;28;1209;-42
2022/01/22 04:48:27;;;;;;;;;;;20.80;52.30;;;;;;5016028;28;1007;-41
2022/01/22 04:56:23;;;;;;;;;;;20.80;52.40;;;;;;5015854;28;678;-42
2022/01/22 04:58:50;;;;;;;;;;;20.80;52.30;;;;;;5016190;28;1080;-42
2022/01/22 05:01:17;;;;;;;;;;;20.70;53.40;;;;;;5015877;28;949;-41
2022/01/22 05:03:43;;;;;;;;;;;20.70;52.20;;;;;;5016261;28;1001;-42
2022/01/22 05:06:11;;;;;;;;;;;20.70;52.30;;;;;;5015770;28;1012;-42
2022/01/22 05:08:38;;;;;;;;;;;20.70;52.30;;;;;;5015665;28;968;-42
2022/01/22 05:11:05;;;;;;;;;;;20.70;52.30;;;;;;5015310;28;973;-41
2022/01/22 05:13:31;;;;;;;;;;;20.70;52.20;;;;;;5015450;28;1983;-41
2022/01/22 05:15:58;;;;;;;;;;;20.70;52.30;;;;;;5015716;28;1009;-41
2022/01/22 05:18:25;;;;;;;;;;;20.70;52.30;;;;;;5015493;28;1739;-41
2022/01/22 05:21:01;;;;;;;;;;;20.70;52.30;;;;;;5015187;28;1003;-41
2022/01/22 05:23:29;;;;;;;;;;;20.70;52.30;;;;;;5015605;28;1011;-42
2022/01/22 05:25:59;;;;;;;;;;;20.80;52.30;;;;;;5015853;28;1116;-42
2022/01/22 05:29:03;;;;;;;;;;;20.90;52.00;;;;;;5015143;28;1004;-41
2022/01/22 05:31:41;;;;;;;;;;;20.80;52.00;;;;;;5015529;28;945;-42
2022/01/22 05:37:01;;;;;;;;;;;20.70;52.20;;;;;;5035667;28;1271;-41
2022/01/22 05:39:29;;;;;;;;;;;20.80;52.20;;;;;;5016464;28;922;-42
2022/01/22 05:41:57;;;;;;;;;;;20.80;52.20;;;;;;5018742;28;1003;-41
2022/01/22 05:44:24;;;;;;;;;;;20.70;52.30;;;;;;5018582;28;991;-42
2022/01/22 05:46:53;;;;;;;;;;;20.70;52.30;;;;;;5018240;28;925;-42
2022/01/22 05:49:22;;;;;;;;;;;20.70;52.30;;;;;;5018410;28;993;-41
2022/01/22 05:51:51;;;;;;;;;;;20.70;52.30;;;;;;5018266;28;952;-41
2022/01/22 05:59:44;;;;;;;;;;;20.70;52.30;;;;;;5018374;28;875;-41
2022/01/22 06:02:12;;;;;;;;;;;20.70;52.30;;;;;;5018858;28;976;-41
2022/01/22 06:04:38;;;;;;;;;;;20.60;52.40;;;;;;5018148;28;937;-39
2022/01/22 06:07:06;;;;;;;;;;;20.60;52.40;;;;;;5018487;28;979;-38
2022/01/22 06:09:33;;;;;;;;;;;20.70;52.40;;;;;;5017852;28;980;-39
2022/01/22 06:12:16;;;;;;;;;;;20.70;52.40;;;;;;5018433;28;937;-38
2022/01/22 06:14:43;;;;;;;;;;;20.70;52.40;;;;;;5018641;28;936;-39
2022/01/22 06:17:10;;;;;;;;;;;20.70;52.30;;;;;;5018328;28;2041;-38
2022/01/22 06:19:37;;;;;;;;;;;20.60;52.20;;;;;;5018491;28;1167;-38
2022/01/22 06:22:04;;;;;;;;;;;20.60;52.30;;;;;;5018010;28;1006;-38
2022/01/22 06:24:31;;;;;;;;;;;20.70;52.30;;;;;;5017977;28;983;-38
2022/01/22 06:26:57;;;;;;;;;;;20.60;52.30;;;;;;5017138;28;984;-38
2022/01/22 06:29:25;;;;;;;;;;;20.60;52.40;;;;;;5016246;28;929;-38
2022/01/22 06:31:52;;;;;;;;;;;20.60;52.40;;;;;;5016225;28;925;-38
2022/01/22 06:34:19;;;;;;;;;;;20.60;52.40;;;;;;5017431;28;1910;-39
2022/01/22 06:36:45;;;;;;;;;;;20.60;52.40;;;;;;5016991;28;976;-38
2022/01/22 06:39:14;;;;;;;;;;;20.60;52.30;;;;;;5017440;28;1000;-38
2022/01/22 06:41:46;;;;;;;;;;;20.60;52.30;;;;;;5017376;28;968;-39
2022/01/22 06:44:14;;;;;;;;;;;20.60;52.30;;;;;;5017264;28;917;-38
2022/01/22 06:46:43;;;;;;;;;;;20.60;52.30;;;;;;5017047;28;1281;-39
2022/01/22 06:49:10;;;;;;;;;;;20.70;52.20;;;;;;5017332;28;953;-39
2022/01/22 06:51:36;;;;;;;;;;;20.70;52.30;;;;;;5017128;28;977;-38
2022/01/22 06:54:04;;;;;;;;;;;20.70;52.20;;;;;;5016827;28;1906;-40
2022/01/22 06:56:31;;;;;;;;;;;20.70;52.20;;;;;;5016619;28;1000;-39
2022/01/22 06:58:58;;;;;;;;;;;20.70;52.10;;;;;;5016735;28;949;-39
2022/01/22 07:01:25;;;;;;;;;;;20.70;52.20;;;;;;5016429;28;1001;-39
2022/01/22 07:03:53;;;;;;;;;;;20.70;52.30;;;;;;5015776;28;952;-38
2022/01/22 07:06:20;;;;;;;;;;;20.70;52.10;;;;;;5015830;28;1012;-38
2022/01/22 07:08:47;;;;;;;;;;;20.60;52.20;;;;;;5015270;28;1019;-38
2022/01/22 07:11:14;;;;;;;;;;;20.60;52.20;;;;;;5016169;28;921;-38
2022/01/22 07:13:40;;;;;;;;;;;20.60;52.10;;;;;;5016048;28;1983;-38
2022/01/22 07:16:07;;;;;;;;;;;20.70;52.10;;;;;;5014515;28;1040;-39
2022/01/22 07:18:36;;;;;;;;;;;20.70;52.10;;;;;;5015941;28;968;-39
2022/01/22 07:21:14;;;;;;;;;;;20.70;52.20;;;;;;5016425;28;907;-39
2022/01/22 07:26:35;;;;;;;;;;;20.70;52.10;;;;;;5039205;28;1169;-39
2022/01/22 07:29:01;;;;;;;;;;;20.70;52.10;;;;;;5015920;28;973;-39
2022/01/22 07:31:28;;;;;;;;;;;20.70;52.00;;;;;;5015682;28;902;-38
2022/01/22 07:33:55;;;;;;;;;;;20.70;52.10;;;;;;5015752;28;1898;-38
2022/01/22 07:36:23;;;;;;;;;;;20.70;52.00;;;;;;5015570;28;977;-38
2022/01/22 07:38:50;;;;;;;;;;;20.70;52.10;;;;;;5014990;28;972;-39
2022/01/22 07:41:17;;;;;;;;;;;20.70;52.10;;;;;;5015231;28;1015;-38
2022/01/22 07:43:43;;;;;;;;;;;20.70;52.10;;;;;;5015122;28;995;-39
2022/01/22 07:46:10;;;;;;;;;;;20.70;52.00;;;;;;5014854;28;1157;-40
2022/01/22 07:48:37;;;;;;;;;;;20.60;52.20;;;;;;5013971;28;1046;-39
2022/01/22 07:51:04;;;;;;;;;;;20.70;53.30;;;;;;5014043;28;897;-38
2022/01/22 07:53:32;;;;;;;;;;;20.70;52.20;;;;;;5015206;28;1895;-39
2022/01/22 07:55:59;;;;;;;;;;;20.60;52.20;;;;;;5015583;28;1824;-38
2022/01/22 07:58:25;;;;;;;;;;;20.50;52.30;;;;;;5014519;28;845;-39
2022/01/22 08:00:52;;;;;;;;;;;20.50;52.30;;;;;;5014998;28;1020;-39
2022/01/22 08:03:19;;;;;;;;;;;20.50;52.30;;;;;;5014235;28;930;-38
2022/01/22 08:05:45;;;;;;;;;;;20.60;52.40;;;;;;5015140;28;949;-38
2022/01/22 08:08:12;;;;;;;;;;;20.60;52.20;;;;;;5015048;28;971;-38
2022/01/22 08:10:40;;;;;;;;;;;20.60;52.10;;;;;;5014206;28;1016;-38
2022/01/22 08:13:07;;;;;;;;;;;20.70;52.00;;;;;;5014976;28;1973;-39
2022/01/22 08:15:33;;;;;;;;;;;20.70;52.10;;;;;;5014943;28;973;-39
2022/01/22 08:18:03;;;;;;;;;;;20.70;52.10;;;;;;5014105;28;991;-39
2022/01/22 08:20:29;;;;;;;;;;;20.70;52.10;;;;;;5014557;28;1015;-39
2022/01/22 08:22:56;;;;;;;;;;;20.70;52.10;;;;;;5014593;28;1012;-38
2022/01/22 08:25:23;;;;;;;;;;;20.60;52.10;;;;;;5014541;28;1034;-39
2022/01/22 08:30:37;;;;;;;;;;;20.60;52.30;;;;;;5013476;28;888;-39
2022/01/22 08:33:31;;;;;;;;;;;20.60;52.30;;;;;;5013944;28;1991;-39
2022/01/22 08:35:55;;;;;;;;;;;20.70;52.20;;;;;;5014228;28;1353;-39
2022/01/22 08:38:22;;;;;;;;;;;20.90;52.00;;;;;;4997285;28;1816;-39
2022/01/22 08:40:48;;;;;;;;;;;21.00;51.80;;;;;;4974754;28;964;-38
2022/01/22 08:43:17;;;;;;;;;;;21.10;51.70;;;;;;4974359;28;1509;-38
2022/01/22 08:45:43;;;;;;;;;;;21.20;51.70;;;;;;4974984;28;1095;-38
2022/01/22 08:48:10;;;;;;;;;;;21.20;51.70;;;;;;4975071;28;925;-42
2022/01/22 08:50:37;;;;;;;;;;;21.30;51.60;;;;;;4975080;28;995;-40
2022/01/22 08:53:04;;;;;;;;;;;21.40;51.60;;;;;;4974577;28;1985;-40
2022/01/22 08:55:30;;;;;;;;;;;21.40;51.50;;;;;;4975440;28;1044;-40
2022/01/22 08:57:57;;;;;;;;;;;21.40;51.50;;;;;;4974370;28;912;-40
2022/01/22 09:00:25;;;;;;;;;;;21.50;51.50;;;;;;4975540;28;981;-41
2022/01/22 09:02:52;;;;;;;;;;;21.50;51.40;;;;;;4976012;28;1068;-40
2022/01/22 09:05:20;;;;;;;;;;;21.50;51.50;;;;;;4975776;28;992;-40
2022/01/22 09:07:47;;;;;;;;;;;21.50;51.40;;;;;;4975272;28;1780;-41
2022/01/22 09:10:13;;;;;;;;;;;21.50;51.50;;;;;;4975774;28;1016;-41
2022/01/22 09:12:41;;;;;;;;;;;21.50;51.40;;;;;;4974965;28;942;-40
2022/01/22 09:15:08;;;;;;;;;;;21.50;51.60;;;;;;4974975;28;1910;-40
2022/01/22 09:17:36;;;;;;;;;;;21.50;51.60;;;;;;4975524;28;974;-40
2022/01/22 09:20:09;;;;;;;;;;;21.60;51.30;;;;;;4976214;28;1020;-40
2022/01/22 09:22:35;;;;;;;;;;;21.60;51.20;;;;;;4975631;28;980;-40
2022/01/22 09:25:02;;;;;;;;;;;21.60;51.50;;;;;;4975163;28;1020;-40
2022/01/22 09:27:29;;;;;;;;;;;21.70;51.30;;;;;;4975616;28;1035;-41
2022/01/22 09:29:56;;;;;;;;;;;21.70;51.30;;;;;;4975823;28;1008;-40
2022/01/22 09:32:22;;;;;;;;;;;21.70;51.20;;;;;;4976264;28;977;-40
2022/01/22 09:34:50;;;;;;;;;;;21.80;51.10;;;;;;4975624;28;1899;-40
2022/01/22 09:37:17;;;;;;;;;;;21.80;50.80;;;;;;4975292;28;944;-40
2022/01/22 09:39:44;;;;;;;;;;;21.80;50.80;;;;;;4975355;28;986;-40
2022/01/22 09:42:10;;;;;;;;;;;21.80;50.90;;;;;;4975398;28;969;-40
2022/01/22 09:44:41;;;;;;;;;;;21.80;51.10;;;;;;4975832;28;1103;-40
2022/01/22 09:47:08;;;;;;;;;;;21.70;51.10;;;;;;4975594;28;938;-40
2022/01/22 09:49:36;;;;;;;;;;;21.60;51.30;;;;;;4975178;28;980;-41
2022/01/22 09:52:04;;;;;;;;;;;21.60;51.40;;;;;;4974591;28;1008;-41
2022/01/22 09:54:31;;;;;;;;;;;21.50;51.50;;;;;;4974971;28;1985;-40
2022/01/22 09:57:03;;;;;;;;;;;21.50;51.60;;;;;;4975123;28;887;-40
2022/01/22 09:59:29;;;;;;;;;;;21.50;51.70;;;;;;4975226;28;996;-40
2022/01/22 10:02:07;;;;;;;;;;;21.40;51.80;;;;;;4975434;28;974;-40
2022/01/22 10:04:37;;;;;;;;;;;21.50;51.90;;;;;;4974495;28;989;-40
2022/01/22 10:07:05;;;;;;;;;;;21.40;51.90;;;;;;4974830;28;993;-40
2022/01/22 10:09:46;;;;;;;;;;;21.60;51.70;;;;;;4973253;28;940;-40
2022/01/22 10:12:15;;;;;;;;;;;21.70;51.40;;;;;;4972325;28;896;-40
2022/01/22 10:14:57;;;;;;;;;;;21.60;51.50;;;;;;4973424;28;1899;-38
2022/01/22 10:17:38;;;;;;;;;;;21.60;51.60;;;;;;4989112;28;2022;-36
2022/01/22 10:20:26;;;;;;;;;;;21.70;51.40;;;;;;4973981;28;1024;-38
2022/01/22 10:22:55;;;;;;;;;;;21.70;51.40;;;;;;4972122;28;1087;-39
2022/01/22 10:25:23;;;;;;;;;;;21.60;51.50;;;;;;4974195;28;971;-39
2022/01/22 10:27:55;;;;;;;;;;;21.50;51.60;;;;;;4976130;28;1003;-38
2022/01/22 10:30:22;;;;;;;;;;;21.60;52.00;;;;;;4976141;28;880;-38
2022/01/22 10:32:53;;;;;;;;;;;21.60;51.60;;;;;;4977166;28;949;-38
2022/01/22 10:35:23;;;;;;;;;;;21.50;52.00;;;;;;4976951;28;2009;-38
2022/01/22 10:37:56;;;;;;;;;;;21.50;52.00;;;;;;4977431;28;965;-36
2022/01/22 10:40:27;;;;;;;;;;;21.50;52.00;;;;;;4977157;28;950;-38
2022/01/22 10:43:09;;;;;;;;;;;21.70;51.70;;;;;;4977784;28;978;-39
2022/01/22 10:45:39;;;;;;;;;;;21.60;51.80;;;;;;4976838;28;1107;-38
2022/01/22 10:48:16;;;;;;;;;;;21.70;51.70;;;;;;4976947;28;1007;-38
2022/01/22 10:50:43;;;;;;;;;;;21.70;51.50;;;;;;4976505;28;1007;-38
2022/01/22 10:53:11;;;;;;;;;;;21.70;51.50;;;;;;4976565;28;988;-38
2022/01/22 10:55:57;;;;;;;;;;;21.80;51.60;;;;;;4975486;28;1906;-38
2022/01/22 10:58:24;;;;;;;;;;;21.80;51.60;;;;;;4974813;28;1016;-38
2022/01/22 11:00:58;;;;;;;;;;;21.90;51.50;;;;;;4976362;28;890;-38
2022/01/22 11:03:26;;;;;;;;;;;21.90;51.70;;;;;;4975558;28;954;-38
2022/01/22 11:05:52;;;;;;;;;;;21.90;51.50;;;;;;4976173;28;959;-36
2022/01/22 11:08:20;;;;;;;;;;;22.00;51.60;;;;;;4974766;28;937;-36
2022/01/22 11:10:48;;;;;;;;;;;22.00;51.50;;;;;;4974305;28;992;-36
2022/01/22 11:13:15;;;;;;;;;;;22.10;51.40;;;;;;4975892;28;1036;-36
2022/01/22 11:15:43;;;;;;;;;;;22.10;51.50;;;;;;4976711;28;1986;-36
2022/01/22 11:18:11;;;;;;;;;;;22.10;51.30;;;;;;4975923;28;969;-36
2022/01/22 11:20:38;;;;;;;;;;;22.20;51.00;;;;;;4976449;28;946;-36
2022/01/22 11:23:05;;;;;;;;;;;22.10;51.00;;;;;;4975129;28;942;-36
2022/01/22 11:25:34;;;;;;;;;;;22.10;51.10;;;;;;4975467;28;980;-39
2022/01/22 11:28:01;;;;;;;;;;;22.10;51.10;;;;;;4975055;28;1056;-36
2022/01/22 11:30:29;;;;;;;;;;;22.10;51.20;;;;;;4975482;28;982;-36
2022/01/22 11:32:59;;;;;;;;;;;22.10;51.10;;;;;;4975482;28;965;-39
2022/01/22 11:35:33;;;;;;;;;;;22.10;51.00;;;;;;4974712;28;2349;-39
2022/01/22 11:38:05;;;;;;;;;;;22.20;51.00;;;;;;4974833;28;1759;-38
2022/01/22 11:40:34;;;;;;;;;;;22.20;50.90;;;;;;4974377;28;1462;-38
2022/01/22 11:43:05;;;;;;;;;;;22.20;50.80;;;;;;4976390;28;1015;-38
2022/01/22 11:45:35;;;;;;;;;;;22.10;51.20;;;;;;4974953;28;1060;-38
2022/01/22 11:48:12;;;;;;;;;;;22.20;51.20;;;;;;4975625;28;985;-38
2022/01/22 11:50:40;;;;;;;;;;;22.10;51.30;;;;;;4975428;28;957;-39
2022/01/22 11:53:25;;;;;;;;;;;22.10;51.40;;;;;;4976861;28;1180;-38
2022/01/22 11:56:11;;;;;;;;;;;22.10;51.30;;;;;;4976490;28;1910;-38
2022/01/22 11:58:53;;;;;;;;;;;22.10;51.30;;;;;;4975322;28;1167;-38
2022/01/22 12:01:34;;;;;;;;;;;22.20;51.20;;;;;;4977054;28;1777;-38
2022/01/22 12:04:03;;;;;;;;;;;22.10;51.30;;;;;;4973529;28;1129;-38
2022/01/22 12:06:30;;;;;;;;;;;22.10;51.40;;;;;;4975061;28;964;-38
2022/01/22 12:09:04;;;;;;;;;;;22.10;51.30;;;;;;4975809;28;1020;-38
2022/01/22 12:14:40;;;;;;;;;;;22.20;51.80;;;;;;4975647;28;1987;-43
2022/01/22 12:17:13;;;;;;;;;;;22.20;52.40;;;;;;4975832;28;1012;-41
2022/01/22 12:19:53;;;;;;;;;;;22.20;51.70;;;;;;4976371;28;1154;-41
2022/01/22 12:22:32;;;;;;;;;;;22.10;51.70;;;;;;4975143;28;893;-41
2022/01/22 12:25:01;;;;;;;;;;;22.00;51.80;;;;;;4975036;28;961;-41
2022/01/22 12:27:44;;;;;;;;;;;22.10;51.80;;;;;;4976455;28;1161;-42
2022/01/22 12:30:12;;;;;;;;;;;22.10;51.90;;;;;;4975924;28;1004;-41
2022/01/22 12:32:45;;;;;;;;;;;22.10;51.70;;;;;;4976505;28;1019;-41
2022/01/22 12:35:17;;;;;;;;;;;22.20;51.60;;;;;;4975466;28;1993;-41
2022/01/22 12:38:02;;;;;;;;;;;22.20;51.70;;;;;;4976182;28;1044;-41
2022/01/22 12:40:34;;;;;;;;;;;22.20;51.50;;;;;;4975327;28;1059;-41
2022/01/22 12:43:06;;;;;;;;;;;22.10;51.80;;;;;;4973826;28;1040;-41
2022/01/22 12:45:34;;;;;;;;;;;22.10;51.80;;;;;;4974648;28;1206;-42
2022/01/22 12:48:04;;;;;;;;;;;22.10;52.00;;;;;;4974016;28;973;-42
2022/01/22 12:50:34;;;;;;;;;;;22.20;51.90;;;;;;4975676;28;985;-42
2022/01/22 12:53:08;;;;;;;;;;;22.20;51.70;;;;;;4974764;28;963;-42
2022/01/22 12:58:23;;;;;;;;;;;22.30;51.60;;;;;;4974109;28;655;-43
2022/01/22 13:00:52;;;;;;;;;;;22.30;51.60;;;;;;4974751;28;1632;-42
2022/01/22 13:03:32;;;;;;;;;;;22.40;51.60;;;;;;4974212;28;1005;-42
2022/01/22 13:06:01;;;;;;;;;;;22.50;51.90;;;;;;4975191;28;999;-42
2022/01/22 13:08:29;;;;;;;;;;;22.40;51.50;;;;;;4975922;28;932;-42
2022/01/22 13:10:57;;;;;;;;;;;22.30;51.80;;;;;;4973583;28;2007;-43
2022/01/22 13:13:24;;;;;;;;;;;22.30;51.90;;;;;;4974264;28;996;-43
2022/01/22 13:16:00;;;;;;;;;;;22.30;51.80;;;;;;4974204;28;1976;-42
2022/01/22 13:18:38;;;;;;;;;;;22.30;51.70;;;;;;4973911;28;1045;-42
2022/01/22 13:21:07;;;;;;;;;;;22.30;51.80;;;;;;4972382;28;1031;-40
2022/01/22 13:23:35;;;;;;;;;;;22.30;51.60;;;;;;4974335;28;996;-40
2022/01/22 13:26:02;;;;;;;;;;;22.40;51.50;;;;;;4974605;28;988;-40
2022/01/22 13:28:32;;;;;;;;;;;22.30;51.60;;;;;;4973738;28;941;-40
2022/01/22 13:31:03;;;;;;;;;;;22.30;51.60;;;;;;4972442;28;1014;-41
2022/01/22 13:33:38;;;;;;;;;;;22.30;51.70;;;;;;4972555;28;1008;-40
2022/01/22 13:36:15;;;;;;;;;;;22.40;51.60;;;;;;4973923;28;1922;-40
2022/01/22 13:49:41;;;;;;;;;;;22.30;51.60;;;;;;4973396;28;1000;-41
2022/01/22 13:52:09;;;;;;;;;;;22.30;51.80;;;;;;4972418;28;972;-40
2022/01/22 13:54:39;;;;;;;;;;;22.30;51.60;;;;;;4974054;28;1906;-40
2022/01/22 13:57:12;;;;;;;;;;;22.20;51.70;;;;;;4973792;28;2041;-40
2022/01/22 13:59:43;;;;;;;;;;;22.30;51.90;;;;;;4975315;28;1861;-41
2022/01/22 14:02:30;;;;;;;;;;;22.40;51.70;;;;;;4978211;28;957;-39
2022/01/22 14:05:02;;;;;;;;;;;22.50;51.50;;;;;;4977536;28;1244;-39
2022/01/22 14:07:31;;;;;;;;;;;22.50;51.60;;;;;;4977709;28;932;-39
2022/01/22 14:10:02;;;;;;;;;;;22.40;51.70;;;;;;4976722;28;1584;-39
2022/01/22 14:12:33;;;;;;;;;;;22.40;51.50;;;;;;4975163;28;1039;-39
2022/01/22 14:15:01;;;;;;;;;;;22.40;51.50;;;;;;4976429;28;1959;-39
2022/01/22 14:17:36;;;;;;;;;;;22.40;51.50;;;;;;4975506;28;1642;-40
2022/01/22 14:20:06;;;;;;;;;;;22.40;51.60;;;;;;4978209;28;994;-39
2022/01/22 14:22:48;;;;;;;;;;;22.50;51.50;;;;;;4975461;28;1045;-39
2022/01/22 14:25:17;;;;;;;;;;;22.50;51.30;;;;;;4977999;28;1747;-39
2022/01/22 14:27:44;;;;;;;;;;;22.50;51.50;;;;;;4978387;28;941;-39
2022/01/22 14:30:11;;;;;;;;;;;22.50;51.40;;;;;;4978044;28;941;-39
2022/01/22 14:32:38;;;;;;;;;;;22.50;51.30;;;;;;4978500;28;954;-39
2022/01/22 14:35:19;;;;;;;;;;;22.70;51.20;;;;;;4978402;28;1966;-39
2022/01/22 14:37:49;;;;;;;;;;;22.60;51.40;;;;;;4977070;28;1863;-39
2022/01/22 14:45:55;;;;;;;;;;;22.70;51.60;;;;;;4976000;28;1230;-41
2022/01/22 14:48:22;;;;;;;;;;;22.70;51.80;;;;;;4978183;28;822;-40
2022/01/22 14:50:49;;;;;;;;;;;22.80;52.70;;;;;;4977523;28;1134;-39
2022/01/22 14:53:16;;;;;;;;;;;22.80;51.70;;;;;;4977031;28;2292;-39
2022/01/22 14:55:50;;;;;;;;;;;22.70;51.50;;;;;;4976669;28;1980;-39
2022/01/22 14:58:16;;;;;;;;;;;22.80;51.80;;;;;;4977293;28;922;-39
2022/01/22 15:00:44;;;;;;;;;;;22.70;51.70;;;;;;4977515;28;1462;-39
2022/01/22 15:03:11;;;;;;;;;;;22.70;51.80;;;;;;4976441;28;1008;-39
2022/01/22 15:05:38;;;;;;;;;;;22.80;51.70;;;;;;4977718;28;1553;-39
2022/01/22 15:08:05;;;;;;;;;;;22.80;51.70;;;;;;4976323;28;953;-38
2022/01/22 15:10:32;;;;;;;;;;;22.80;51.70;;;;;;4975965;28;1612;-38
2022/01/22 15:13:00;;;;;;;;;;;22.80;51.50;;;;;;4975990;28;997;-39
2022/01/22 15:15:34;;;;;;;;;;;22.70;51.80;;;;;;4978134;28;1911;-39
2022/01/22 15:18:10;;;;;;;;;;;22.60;52.20;;;;;;4977695;28;1048;-39
2022/01/22 15:20:37;;;;;;;;;;;22.60;52.50;;;;;;4976994;28;1481;-40
2022/01/22 15:23:04;;;;;;;;;;;22.50;52.50;;;;;;4977464;28;976;-39
2022/01/22 15:25:31;;;;;;;;;;;22.50;52.70;;;;;;4978410;28;966;-39
2022/01/22 15:27:58;;;;;;;;;;;22.50;52.70;;;;;;4977101;28;981;-39
2022/01/22 15:30:31;;;;;;;;;;;22.50;53.90;;;;;;4977383;28;941;-39
2022/01/22 15:33:03;;;;;;;;;;;22.40;52.70;;;;;;4976599;28;1077;-39
2022/01/22 15:35:30;;;;;;;;;;;22.40;52.80;;;;;;4977630;28;1981;-39
2022/01/22 15:37:59;;;;;;;;;;;22.50;52.90;;;;;;4977984;28;845;-41
2022/01/22 15:40:28;;;;;;;;;;;22.40;53.00;;;;;;4977325;28;1489;-39
2022/01/22 15:42:54;;;;;;;;;;;22.40;53.00;;;;;;4978072;28;984;-39
2022/01/22 15:45:23;;;;;;;;;;;22.40;53.00;;;;;;4976968;28;1127;-39
2022/01/22 15:47:51;;;;;;;;;;;22.40;53.10;;;;;;4976934;28;998;-41
2022/01/22 15:50:18;;;;;;;;;;;22.40;53.00;;;;;;4977339;28;1032;-40
2022/01/22 15:52:46;;;;;;;;;;;22.40;53.00;;;;;;4977655;28;1004;-39
2022/01/22 15:55:13;;;;;;;;;;;22.50;52.70;;;;;;4977085;28;1907;-39
2022/01/22 15:57:40;;;;;;;;;;;22.60;52.50;;;;;;4976165;28;940;-39
2022/01/22 16:00:09;;;;;;;;;;;22.70;52.20;;;;;;4975597;28;1025;-39
2022/01/22 16:02:36;;;;;;;;;;;22.70;52.10;;;;;;4976261;28;940;-40
2022/01/22 16:05:05;;;;;;;;;;;22.80;52.20;;;;;;4975493;28;1038;-40
2022/01/22 16:07:32;;;;;;;;;;;22.70;52.30;;;;;;4975645;28;837;-40
2022/01/22 16:10:00;;;;;;;;;;;22.70;52.20;;;;;;4976522;28;1209;-40
2022/01/22 16:12:28;;;;;;;;;;;22.80;52.40;;;;;;4976954;28;968;-40